createdAt,value
2016-09-02T00:00:09.010Z,86.55
2016-09-02T00:01:12.067Z,86.55
2016-09-02T00:02:12.693Z,86.55
2016-09-02T00:03:13.318Z,86.65
2016-09-02T00:04:13.967Z,86.46
2016-09-02T00:05:14.710Z,86.84
2016-09-02T00:06:15.333Z,87.03
2016-09-02T00:07:15.982Z,86.27
2016-09-02T00:08:16.597Z,87.03
2016-09-02T00:09:17.218Z,87.03
2016-09-02T00:10:17.851Z,86.84
2016-09-02T00:11:18.485Z,86.84
2016-09-02T00:12:19.112Z,86.84
2016-09-02T00:13:19.760Z,87.03
2016-09-02T00:14:20.393Z,86.36
2016-09-02T00:15:21.181Z,86.08
2016-09-02T00:16:21.793Z,86.27
2016-09-02T00:17:22.430Z,87.13
2016-09-02T00:18:23.053Z,86.46
2016-09-02T00:19:23.696Z,86.46
2016-09-02T00:20:24.341Z,87.23
2016-09-02T00:21:24.984Z,86.55
2016-09-02T00:22:25.595Z,86.74
2016-09-02T00:23:26.229Z,86.36
2016-09-02T00:24:26.865Z,86.46
2016-09-02T00:25:27.488Z,86.46
2016-09-02T00:26:28.110Z,87.03
2016-09-02T00:27:28.727Z,86.94
2016-09-02T00:28:29.340Z,86.65
2016-09-02T00:29:29.985Z,87.03
2016-09-02T00:30:30.597Z,86.65
2016-09-02T00:31:31.222Z,87.23
2016-09-02T00:32:31.875Z,87.32
2016-09-02T00:33:32.501Z,87.03
2016-09-02T00:34:33.118Z,87.13
2016-09-02T00:35:33.760Z,87.41
2016-09-02T00:36:34.383Z,87.03
2016-09-02T00:37:35.002Z,87.13
2016-09-02T00:38:35.629Z,87.47
2016-09-02T00:39:36.299Z,87.23
2016-09-02T00:40:36.926Z,86.99
2016-09-02T00:41:37.547Z,87.51
2016-09-02T00:42:38.175Z,87.66
2016-09-02T00:43:38.815Z,87.8
2016-09-02T00:44:39.443Z,87.66
2016-09-02T00:45:40.072Z,87.9
2016-09-02T00:46:40.712Z,87.95
2016-09-02T00:47:41.359Z,88.37
2016-09-02T00:48:41.982Z,88.37
2016-09-02T00:49:42.597Z,88.13
2016-09-02T00:50:43.252Z,88.28
2016-09-02T00:51:43.885Z,88.33
2016-09-02T00:52:44.491Z,87.95
2016-09-02T00:53:45.121Z,88.13
2016-09-02T00:54:45.738Z,88.52
2016-09-02T00:55:46.371Z,87.85
2016-09-02T00:56:47.008Z,87.95
2016-09-02T00:57:47.621Z,87.85
2016-09-02T00:58:48.236Z,87.95
2016-09-02T00:59:48.857Z,87.95
2016-09-02T01:00:49.475Z,88.13
2016-09-02T01:01:50.093Z,88.13
2016-09-02T01:02:50.717Z,88.33
2016-09-02T01:03:51.337Z,88.23
2016-09-02T01:04:51.992Z,88.13
2016-09-02T01:05:52.810Z,88.33
2016-09-02T01:06:53.443Z,88.23
2016-09-02T01:07:54.065Z,88.33
2016-09-02T01:08:54.709Z,88.33
2016-09-02T01:09:55.418Z,88.23
2016-09-02T01:10:56.257Z,88.23
2016-09-02T01:11:56.878Z,88.23
2016-09-02T01:12:57.493Z,87.85
2016-09-02T01:13:58.133Z,87.56
2016-09-02T01:14:58.768Z,87.66
2016-09-02T01:15:59.409Z,87.66
2016-09-02T01:17:00.071Z,87.66
2016-09-02T01:18:00.691Z,87.66
2016-09-02T01:19:01.330Z,87.76
2016-09-02T01:20:02.262Z,87.66
2016-09-02T01:21:02.922Z,87.85
2016-09-02T01:22:03.547Z,87.85
2016-09-02T01:23:04.187Z,87.56
2016-09-02T01:24:04.802Z,87.85
2016-09-02T01:25:05.455Z,88.04
2016-09-02T01:26:06.081Z,87.95
2016-09-02T01:27:06.712Z,88.33
2016-09-02T01:28:07.348Z,87.95
2016-09-02T01:29:07.967Z,88.04
2016-09-02T01:30:08.617Z,88.04
2016-09-02T01:31:09.236Z,87.95
2016-09-02T01:32:09.857Z,88.43
2016-09-02T01:33:10.478Z,87.85
2016-09-02T01:34:11.099Z,87.85
2016-09-02T01:35:11.738Z,88.13
2016-09-02T01:36:12.371Z,87.95
2016-09-02T01:37:13.004Z,87.95
2016-09-02T01:38:13.660Z,88.13
2016-09-02T01:39:14.283Z,87.66
2016-09-02T01:40:14.905Z,87.56
2016-09-02T01:41:15.525Z,87.95
2016-09-02T01:42:16.144Z,87.47
2016-09-02T01:43:16.814Z,87.27
2016-09-02T01:44:17.430Z,87.76
2016-09-02T01:45:18.057Z,87.66
2016-09-02T01:46:18.686Z,87.66
2016-09-02T01:47:19.308Z,87.56
2016-09-02T01:48:19.941Z,87.27
2016-09-02T01:49:20.560Z,87.37
2016-09-02T01:50:21.188Z,87.47
2016-09-02T01:51:21.837Z,87.37
2016-09-02T01:52:22.442Z,87.18
2016-09-02T01:53:23.059Z,87.27
2016-09-02T01:54:23.694Z,87.18
2016-09-02T01:55:24.375Z,87.47
2016-09-02T01:56:24.996Z,86.99
2016-09-02T01:57:25.613Z,87.08
2016-09-02T01:58:26.233Z,87.18
2016-09-02T01:59:26.857Z,87.18
2016-09-02T02:00:27.474Z,87.14
2016-09-02T02:01:28.091Z,87.52
2016-09-02T02:02:28.714Z,87.18
2016-09-02T02:03:29.336Z,87.76
2016-09-02T02:04:29.961Z,87.71
2016-09-02T02:05:30.597Z,87.71
2016-09-02T02:06:31.236Z,87.43
2016-09-02T02:07:31.865Z,87.81
2016-09-02T02:08:32.503Z,87.71
2016-09-02T02:09:33.162Z,87.71
2016-09-02T02:10:33.796Z,87.81
2016-09-02T02:11:34.468Z,87.9
2016-09-02T02:12:35.090Z,87.52
2016-09-02T02:13:35.712Z,88.09
2016-09-02T02:14:36.328Z,87.9
2016-09-02T02:15:36.995Z,87.71
2016-09-02T02:16:37.621Z,87.71
2016-09-02T02:17:38.237Z,88.19
2016-09-02T02:18:38.858Z,88.38
2016-09-02T02:19:39.476Z,88
2016-09-02T02:20:40.098Z,87.52
2016-09-02T02:21:40.717Z,87.33
2016-09-02T02:22:41.339Z,87.43
2016-09-02T02:23:42.024Z,87.23
2016-09-02T02:24:42.681Z,87.33
2016-09-02T02:25:43.303Z,87.43
2016-09-02T02:26:43.923Z,87.43
2016-09-02T02:27:44.555Z,87.81
2016-09-02T02:28:45.184Z,87.14
2016-09-02T02:29:45.796Z,87.23
2016-09-02T02:30:46.424Z,87.14
2016-09-02T02:31:47.043Z,87.81
2016-09-02T02:32:47.706Z,87.33
2016-09-02T02:33:48.332Z,87.23
2016-09-02T02:34:48.971Z,87.23
2016-09-02T02:35:49.651Z,86.85
2016-09-02T02:36:50.275Z,87.04
2016-09-02T02:37:50.895Z,87.62
2016-09-02T02:38:51.520Z,86.76
2016-09-02T02:39:52.136Z,87.23
2016-09-02T02:40:52.756Z,86.76
2016-09-02T02:41:53.381Z,87.62
2016-09-02T02:42:54.088Z,87.33
2016-09-02T02:43:54.695Z,87.23
2016-09-02T02:44:55.312Z,87.04
2016-09-02T02:45:56.032Z,87.14
2016-09-02T02:46:56.678Z,87.43
2016-09-02T02:47:57.311Z,87.23
2016-09-02T02:48:57.929Z,87.23
2016-09-02T02:49:58.547Z,87.23
2016-09-02T02:50:59.166Z,87.33
2016-09-02T02:51:59.781Z,87.33
2016-09-02T02:53:00.411Z,87.52
2016-09-02T02:54:01.030Z,87.81
2016-09-02T02:55:01.673Z,88.19
2016-09-02T02:56:02.284Z,87.81
2016-09-02T02:57:02.908Z,88
2016-09-02T02:58:03.542Z,87.71
2016-09-02T02:59:04.185Z,88
2016-09-02T03:00:04.926Z,88.09
2016-09-02T03:01:05.564Z,88.09
2016-09-02T03:02:06.217Z,87.81
2016-09-02T03:03:06.858Z,87.62
2016-09-02T03:04:07.478Z,87.9
2016-09-02T03:05:08.116Z,88
2016-09-02T03:06:08.741Z,87.9
2016-09-02T03:07:09.363Z,87.52
2016-09-02T03:08:09.984Z,87.52
2016-09-02T03:09:10.599Z,87.62
2016-09-02T03:10:11.371Z,87.9
2016-09-02T03:11:12.010Z,88
2016-09-02T03:12:12.630Z,88.38
2016-09-02T03:13:13.260Z,88.48
2016-09-02T03:14:13.878Z,88
2016-09-02T03:15:14.495Z,87.81
2016-09-02T03:16:15.121Z,87.71
2016-09-02T03:17:15.739Z,87.9
2016-09-02T03:18:16.361Z,88.29
2016-09-02T03:19:16.984Z,87.9
2016-09-02T03:20:17.701Z,87.9
2016-09-02T03:21:18.341Z,88
2016-09-02T03:22:18.958Z,88.19
2016-09-02T03:23:19.581Z,88.29
2016-09-02T03:24:20.197Z,87.9
2016-09-02T03:25:20.821Z,87.71
2016-09-02T03:26:21.457Z,87.62
2016-09-02T03:27:22.085Z,87.71
2016-09-02T03:28:22.726Z,87.81
2016-09-02T03:29:23.339Z,87.71
2016-09-02T03:30:23.971Z,88
2016-09-02T03:31:24.588Z,88.09
2016-09-02T03:32:25.218Z,88
2016-09-02T03:33:25.839Z,87.81
2016-09-02T03:34:26.467Z,88.19
2016-09-02T03:35:27.088Z,88.09
2016-09-02T03:36:27.702Z,88.29
2016-09-02T03:37:28.336Z,88.19
2016-09-02T03:38:28.949Z,88.09
2016-09-02T03:39:29.572Z,88.29
2016-09-02T03:40:30.216Z,88.19
2016-09-02T03:41:30.849Z,88.19
2016-09-02T03:42:31.494Z,88.19
2016-09-02T03:43:32.115Z,88.19
2016-09-02T03:44:32.776Z,88.09
2016-09-02T03:45:33.397Z,88.09
2016-09-02T03:46:34.017Z,88.09
2016-09-02T03:47:34.650Z,88.29
2016-09-02T03:48:35.286Z,88.09
2016-09-02T03:49:35.905Z,88.09
2016-09-02T03:50:36.523Z,88.19
2016-09-02T03:51:37.140Z,87.9
2016-09-02T03:52:37.761Z,88
2016-09-02T03:53:38.380Z,87.71
2016-09-02T03:54:38.998Z,88.15
2016-09-02T03:55:39.616Z,88
2016-09-02T03:56:40.234Z,88.19
2016-09-02T03:57:40.869Z,88.09
2016-09-02T03:58:41.540Z,88.09
2016-09-02T03:59:42.221Z,88.09
2016-09-02T04:00:42.875Z,88.19
2016-09-02T04:01:43.499Z,88.29
2016-09-02T04:02:44.116Z,88.09
2016-09-02T04:03:44.738Z,88.09
2016-09-02T04:04:45.364Z,88.09
2016-09-02T04:05:45.983Z,87.81
2016-09-02T04:06:46.604Z,88.09
2016-09-02T04:07:47.220Z,88
2016-09-02T04:08:47.842Z,88.05
2016-09-02T04:09:48.470Z,87.9
2016-09-02T04:10:49.094Z,88.09
2016-09-02T04:11:49.749Z,88
2016-09-02T04:12:50.386Z,88.15
2016-09-02T04:13:51.006Z,88.09
2016-09-02T04:14:51.637Z,88.15
2016-09-02T04:15:52.303Z,87.95
2016-09-02T04:16:52.914Z,88.09
2016-09-02T04:17:53.576Z,88.38
2016-09-02T04:18:54.209Z,88.86
2016-09-02T04:19:54.835Z,88.09
2016-09-02T04:20:55.451Z,88.29
2016-09-02T04:21:56.072Z,88.09
2016-09-02T04:22:56.738Z,87.86
2016-09-02T04:23:57.362Z,88.09
2016-09-02T04:24:57.981Z,88.09
2016-09-02T04:25:59.118Z,87.81
2016-09-02T04:26:59.744Z,88.09
2016-09-02T04:28:00.391Z,88.09
2016-09-02T04:29:01.011Z,88.09
2016-09-02T04:30:01.665Z,88
2016-09-02T04:31:02.300Z,88.05
2016-09-02T04:32:02.929Z,88.24
2016-09-02T04:33:03.570Z,88
2016-09-02T04:34:04.198Z,87.9
2016-09-02T04:35:04.814Z,88.19
2016-09-02T04:36:05.432Z,88.38
2016-09-02T04:37:06.056Z,88.09
2016-09-02T04:38:06.687Z,87.62
2016-09-02T04:39:07.299Z,88.09
2016-09-02T04:40:07.937Z,87.81
2016-09-02T04:41:08.666Z,87.57
2016-09-02T04:42:09.286Z,88.24
2016-09-02T04:43:09.895Z,88.05
2016-09-02T04:44:10.520Z,88.29
2016-09-02T04:45:11.458Z,88.09
2016-09-02T04:46:12.076Z,87.71
2016-09-02T04:47:12.721Z,88
2016-09-02T04:48:13.339Z,88.09
2016-09-02T04:49:13.969Z,87.9
2016-09-02T04:50:14.586Z,87.62
2016-09-02T04:51:15.205Z,87.52
2016-09-02T04:52:15.832Z,87.43
2016-09-02T04:53:16.507Z,87.52
2016-09-02T04:54:17.130Z,87.71
2016-09-02T04:55:17.766Z,87.62
2016-09-02T04:56:18.389Z,87.43
2016-09-02T04:57:19.026Z,87.23
2016-09-02T04:58:19.647Z,87.04
2016-09-02T04:59:20.273Z,87.14
2016-09-02T05:00:20.889Z,86.76
2016-09-02T05:01:21.509Z,87.33
2016-09-02T05:02:22.141Z,86.94
2016-09-02T05:03:22.760Z,86.94
2016-09-02T05:04:23.406Z,86.22
2016-09-02T05:05:24.032Z,86.37
2016-09-02T05:06:24.655Z,86.57
2016-09-02T05:07:25.290Z,85.89
2016-09-02T05:08:25.914Z,85.94
2016-09-02T05:09:26.519Z,85.94
2016-09-02T05:10:27.146Z,85.75
2016-09-02T05:11:27.761Z,85.55
2016-09-02T05:12:28.386Z,85.65
2016-09-02T05:13:29.011Z,85.65
2016-09-02T05:14:29.638Z,85.17
2016-09-02T05:15:30.261Z,85.17
2016-09-02T05:16:30.896Z,85.17
2016-09-02T05:17:31.524Z,84.41
2016-09-02T05:18:32.153Z,84.31
2016-09-02T05:19:32.805Z,85.17
2016-09-02T05:20:33.454Z,85.17
2016-09-02T05:21:34.079Z,84.64
2016-09-02T05:22:34.689Z,84.59
2016-09-02T05:23:35.314Z,84.12
2016-09-02T05:24:35.948Z,83.97
2016-09-02T05:25:36.570Z,83.36
2016-09-02T05:26:37.235Z,83.2
2016-09-02T05:27:37.895Z,83.3
2016-09-02T05:28:38.577Z,82.82
2016-09-02T05:29:39.209Z,82.73
2016-09-02T05:30:39.859Z,83.39
2016-09-02T05:31:40.498Z,83.11
2016-09-02T05:32:41.123Z,82.73
2016-09-02T05:33:41.765Z,83.2
2016-09-02T05:34:42.406Z,82.63
2016-09-02T05:35:43.030Z,82.15
2016-09-02T05:36:43.679Z,82.82
2016-09-02T05:37:44.332Z,82.29
2016-09-02T05:38:44.994Z,82.29
2016-09-02T05:39:45.665Z,81.71
2016-09-02T05:40:46.298Z,81.9
2016-09-02T05:41:46.961Z,82.19
2016-09-02T05:42:47.595Z,81.81
2016-09-02T05:43:48.233Z,81.43
2016-09-02T05:44:48.865Z,81.13
2016-09-02T05:45:49.522Z,80.66
2016-09-02T05:46:50.168Z,80.7
2016-09-02T05:47:50.828Z,80.47
2016-09-02T05:48:51.512Z,79.6
2016-09-02T05:49:52.176Z,79.83
2016-09-02T05:50:52.796Z,79.8
2016-09-02T05:51:53.439Z,79.64
2016-09-02T05:52:54.143Z,79.55
2016-09-02T05:53:54.764Z,79.36
2016-09-02T05:54:55.386Z,79.55
2016-09-02T05:55:56.006Z,79.45
2016-09-02T05:56:56.629Z,79.26
2016-09-02T05:57:57.251Z,79.26
2016-09-02T05:58:57.920Z,78.97
2016-09-02T05:59:58.543Z,78.69
2016-09-02T06:00:59.203Z,78.69
2016-09-02T06:01:59.827Z,78.69
2016-09-02T06:03:00.492Z,78.3
2016-09-02T06:04:01.133Z,78.3
2016-09-02T06:05:01.797Z,78.34
2016-09-02T06:06:02.456Z,78.05
2016-09-02T06:07:03.097Z,77.76
2016-09-02T06:08:03.725Z,77.67
2016-09-02T06:09:04.383Z,77
2016-09-02T06:10:05.002Z,76.71
2016-09-02T06:11:05.680Z,76.9
2016-09-02T06:12:06.341Z,77.09
2016-09-02T06:13:06.975Z,77.09
2016-09-02T06:14:07.634Z,77
2016-09-02T06:15:09.056Z,76.52
2016-09-02T06:16:10.379Z,76.42
2016-09-02T06:17:11.115Z,76.42
2016-09-02T06:18:11.756Z,76.14
2016-09-02T06:19:12.377Z,76.32
2016-09-02T06:20:13.001Z,76.07
2016-09-02T06:21:13.680Z,76.07
2016-09-02T06:22:14.307Z,76.27
2016-09-02T06:23:14.963Z,75.31
2016-09-02T06:24:15.580Z,75.79
2016-09-02T06:25:16.244Z,75.21
2016-09-02T06:26:16.897Z,75.7
2016-09-02T06:27:17.560Z,75.7
2016-09-02T06:28:18.237Z,75.89
2016-09-02T06:29:18.882Z,75.02
2016-09-02T06:30:19.570Z,73.24
2016-09-02T06:31:20.221Z,72.31
2016-09-02T06:32:20.848Z,71.83
2016-09-02T06:33:21.483Z,72.28
2016-09-02T06:34:22.168Z,72.28
2016-09-02T06:35:22.817Z,72.56
2016-09-02T06:36:23.612Z,72.66
2016-09-02T06:37:24.232Z,72.95
2016-09-02T06:38:24.880Z,72.95
2016-09-02T06:39:25.575Z,72.72
2016-09-02T06:40:26.207Z,73.49
2016-09-02T06:41:26.865Z,73.97
2016-09-02T06:42:27.578Z,74.64
2016-09-02T06:43:28.119Z,75.21
2016-09-02T06:44:28.759Z,75.4
2016-09-02T06:45:29.385Z,74.51
2016-09-02T06:46:30.017Z,74.89
2016-09-02T06:47:30.653Z,75.46
2016-09-02T06:48:31.292Z,75.12
2016-09-02T06:49:31.922Z,75.46
2016-09-02T06:50:32.537Z,75.37
2016-09-02T06:51:33.162Z,75.12
2016-09-02T06:52:33.798Z,75.31
2016-09-02T06:53:34.425Z,75.31
2016-09-02T06:54:35.066Z,75.79
2016-09-02T06:55:35.697Z,75.5
2016-09-02T06:56:36.341Z,74.93
2016-09-02T06:57:36.988Z,75.31
2016-09-02T06:58:37.654Z,75.21
2016-09-02T06:59:38.300Z,75.21
2016-09-02T07:00:38.937Z,75.79
2016-09-02T07:01:39.564Z,74.44
2016-09-02T07:02:40.191Z,74.06
2016-09-02T07:03:40.824Z,74.26
2016-09-02T07:04:41.479Z,75.12
2016-09-02T07:05:42.120Z,75.21
2016-09-02T07:06:42.742Z,74.44
2016-09-02T07:07:43.402Z,74.54
2016-09-02T07:08:45.634Z,74.48
2016-09-02T07:09:46.707Z,73.97
2016-09-02T07:10:47.449Z,73.68
2016-09-02T07:11:48.180Z,74.16
2016-09-02T07:12:48.823Z,73.43
2016-09-02T07:13:49.469Z,73.58
2016-09-02T07:14:50.101Z,73.2
2016-09-02T07:15:50.735Z,72.81
2016-09-02T07:16:51.393Z,72.75
2016-09-02T07:17:52.031Z,73.04
2016-09-02T07:18:52.852Z,72.95
2016-09-02T07:19:53.625Z,73.04
2016-09-02T07:20:54.406Z,72.37
2016-09-02T07:21:55.229Z,72.66
2016-09-02T07:22:55.998Z,71.73
2016-09-02T07:23:56.821Z,71.83
2016-09-02T07:24:57.652Z,70.87
2016-09-02T07:25:58.355Z,70.87
2016-09-02T07:26:59.046Z,70.49
2016-09-02T07:27:59.742Z,69.91
2016-09-02T07:29:00.475Z,69.53
2016-09-02T07:30:01.190Z,69.34
2016-09-02T07:31:01.870Z,69.46
2016-09-02T07:32:02.794Z,68.44
2016-09-02T07:33:03.526Z,67.38
2016-09-02T07:34:04.256Z,67
2016-09-02T07:35:05.062Z,65.63
2016-09-02T07:36:06.019Z,63.73
2016-09-02T07:37:06.721Z,61.45
2016-09-02T07:38:07.516Z,62.12
2016-09-02T07:39:08.348Z,60.94
2016-09-02T07:40:09.051Z,61.61
2016-09-02T07:41:09.714Z,60.68
2016-09-02T07:42:10.347Z,59.78
2016-09-02T07:43:11.022Z,58.45
2016-09-02T07:44:11.672Z,56.65
2016-09-02T07:45:12.323Z,55.49
2016-09-02T07:46:12.951Z,55.59
2016-09-02T07:47:13.671Z,55.71
2016-09-02T07:48:14.326Z,54.49
2016-09-02T07:49:15.058Z,52.84
2016-09-02T07:50:15.863Z,53.61
2016-09-02T07:51:16.576Z,53.03
2016-09-02T07:52:17.237Z,53.88
2016-09-02T07:53:17.947Z,54.33
2016-09-02T07:54:18.640Z,55.66
2016-09-02T07:55:19.292Z,56.98
2016-09-02T07:56:19.977Z,58.04
2016-09-02T07:57:20.638Z,57.17
2016-09-02T07:58:21.293Z,56.91
2016-09-02T07:59:21.938Z,57.56
2016-09-02T08:00:22.615Z,57.46
2016-09-02T08:01:23.285Z,58.3
2016-09-02T08:02:23.957Z,58.49
2016-09-02T08:03:24.608Z,59.17
2016-09-02T08:04:25.244Z,59.62
2016-09-02T08:05:25.880Z,60.87
2016-09-02T08:06:26.538Z,60.87
2016-09-02T08:07:27.185Z,61.45
2016-09-02T08:08:27.826Z,62
2016-09-02T08:09:28.469Z,62.19
2016-09-02T08:10:29.258Z,62.38
2016-09-02T08:11:29.894Z,62.67
2016-09-02T08:12:30.524Z,62.48
2016-09-02T08:13:31.155Z,61.93
2016-09-02T08:14:31.801Z,61.55
2016-09-02T08:15:32.457Z,61.55
2016-09-02T08:16:33.099Z,61.45
2016-09-02T08:17:33.749Z,60.61
2016-09-02T08:18:34.377Z,59.3
2016-09-02T08:19:35.016Z,58.42
2016-09-02T08:20:35.680Z,56.81
2016-09-02T08:21:36.402Z,55.98
2016-09-02T08:22:37.059Z,55.59
2016-09-02T08:23:37.720Z,56.07
2016-09-02T08:24:38.388Z,55.4
2016-09-02T08:25:39.073Z,54.24
2016-09-02T08:26:39.778Z,54.24
2016-09-02T08:27:40.448Z,53.95
2016-09-02T08:28:41.101Z,53.85
2016-09-02T08:29:41.832Z,53.08
2016-09-02T08:30:42.484Z,53.69
2016-09-02T08:31:43.144Z,53.23
2016-09-02T08:32:43.812Z,52.17
2016-09-02T08:33:44.468Z,52.33
2016-09-02T08:34:45.115Z,53.3
2016-09-02T08:35:45.847Z,53.3
2016-09-02T08:36:46.504Z,53.08
2016-09-02T08:37:47.181Z,53.39
2016-09-02T08:38:47.914Z,52.65
2016-09-02T08:39:48.581Z,52.65
2016-09-02T08:40:49.270Z,52.65
2016-09-02T08:41:49.936Z,52.26
2016-09-02T08:42:50.752Z,52.26
2016-09-02T08:43:51.617Z,51.39
2016-09-02T08:44:52.328Z,51.51
2016-09-02T08:45:52.977Z,51.03
2016-09-02T08:46:53.637Z,51.03
2016-09-02T08:47:54.283Z,51.13
2016-09-02T08:48:54.959Z,51.03
2016-09-02T08:49:55.946Z,52.07
2016-09-02T08:50:56.590Z,52.45
2016-09-02T08:51:57.283Z,52.91
2016-09-02T08:52:57.940Z,53.69
2016-09-02T08:53:58.593Z,52.91
2016-09-02T08:54:59.321Z,50.98
2016-09-02T08:55:59.975Z,51.65
2016-09-02T08:57:00.646Z,51.37
2016-09-02T08:58:01.382Z,51.85
2016-09-02T08:59:02.016Z,51.34
2016-09-02T09:00:02.881Z,52.5
2016-09-02T09:01:04.263Z,52.79
2016-09-02T09:02:04.922Z,53.75
2016-09-02T09:03:05.638Z,52.86
2016-09-02T09:04:06.341Z,53.61
2016-09-02T09:05:07.000Z,54.96
2016-09-02T09:06:07.649Z,55.44
2016-09-02T09:07:08.314Z,55.89
2016-09-02T09:08:08.995Z,56.37
2016-09-02T09:09:09.673Z,57.34
2016-09-02T09:10:10.351Z,58.3
2016-09-02T09:11:10.995Z,57.43
2016-09-02T09:12:11.639Z,58.08
2016-09-02T09:13:12.326Z,58.47
2016-09-02T09:14:13.112Z,58.08
2016-09-02T09:15:13.761Z,58.47
2016-09-02T09:16:14.384Z,58.47
2016-09-02T09:17:15.072Z,58.08
2016-09-02T09:18:15.779Z,58.56
2016-09-02T09:19:16.440Z,58.65
2016-09-02T09:20:17.073Z,58.65
2016-09-02T09:21:17.738Z,59.11
2016-09-02T09:22:18.405Z,58.95
2016-09-02T09:23:19.076Z,59.43
2016-09-02T09:24:19.746Z,57.98
2016-09-02T09:25:20.443Z,57.6
2016-09-02T09:26:21.248Z,57.79
2016-09-02T09:27:21.880Z,58.47
2016-09-02T09:28:22.532Z,56.54
2016-09-02T09:29:23.295Z,57.21
2016-09-02T09:30:24.062Z,56.25
2016-09-02T09:31:24.768Z,56.82
2016-09-02T09:32:25.408Z,56.54
2016-09-02T09:33:26.056Z,56.63
2016-09-02T09:34:26.718Z,57.5
2016-09-02T09:35:27.920Z,57.5
2016-09-02T09:36:28.830Z,56.54
2016-09-02T09:37:29.494Z,57.6
2016-09-02T09:38:30.118Z,57.5
2016-09-02T09:39:30.760Z,57.5
2016-09-02T09:40:31.402Z,57.69
2016-09-02T09:41:32.083Z,57.02
2016-09-02T09:42:32.736Z,57.53
2016-09-02T09:43:33.400Z,58.11
2016-09-02T09:44:34.064Z,58.01
2016-09-02T09:45:34.713Z,58.01
2016-09-02T09:46:35.397Z,57.05
2016-09-02T09:47:36.063Z,56.57
2016-09-02T09:48:36.703Z,56.66
2016-09-02T09:49:37.365Z,56.95
2016-09-02T09:50:38.016Z,56.37
2016-09-02T09:51:38.661Z,55.96
2016-09-02T09:52:39.311Z,56.37
2016-09-02T09:53:39.977Z,56.47
2016-09-02T09:54:40.634Z,56.18
2016-09-02T09:55:41.300Z,56.47
2016-09-02T09:56:41.956Z,55.6
2016-09-02T09:57:42.612Z,56.18
2016-09-02T09:58:43.295Z,55.41
2016-09-02T09:59:43.922Z,55.41
2016-09-02T10:00:44.606Z,55.51
2016-09-02T10:01:45.248Z,55.7
2016-09-02T10:02:45.886Z,56.18
2016-09-02T10:03:46.532Z,55.89
2016-09-02T10:04:47.172Z,55.6
2016-09-02T10:05:48.177Z,56.47
2016-09-02T10:06:48.828Z,56.18
2016-09-02T10:07:49.555Z,55.7
2016-09-02T10:08:50.223Z,54.57
2016-09-02T10:09:50.867Z,54.28
2016-09-02T10:10:51.521Z,53.99
2016-09-02T10:11:52.179Z,52.45
2016-09-02T10:12:52.832Z,51.89
2016-09-02T10:13:53.472Z,52.28
2016-09-02T10:14:54.112Z,52.67
2016-09-02T10:15:54.763Z,52.09
2016-09-02T10:16:55.395Z,51.89
2016-09-02T10:17:56.053Z,51.41
2016-09-02T10:18:56.695Z,51.03
2016-09-02T10:19:57.381Z,51.12
2016-09-02T10:20:58.082Z,50.93
2016-09-02T10:21:58.733Z,51.51
2016-09-02T10:22:59.385Z,51.58
2016-09-02T10:24:00.021Z,52.16
2016-09-02T10:25:00.646Z,53.13
2016-09-02T10:26:01.431Z,52.93
2016-09-02T10:27:02.074Z,52.93
2016-09-02T10:28:02.715Z,53.89
2016-09-02T10:29:03.361Z,52.55
2016-09-02T10:30:04.002Z,53.03
2016-09-02T10:31:04.639Z,51.77
2016-09-02T10:32:05.276Z,50.98
2016-09-02T10:33:05.935Z,51.65
2016-09-02T10:34:06.567Z,52.23
2016-09-02T10:35:07.232Z,52.71
2016-09-02T10:36:07.875Z,52.42
2016-09-02T10:37:08.529Z,52.71
2016-09-02T10:38:09.152Z,52.33
2016-09-02T10:39:09.853Z,52.71
2016-09-02T10:40:10.518Z,52.61
2016-09-02T10:41:11.167Z,52.91
2016-09-02T10:42:11.825Z,53.29
2016-09-02T10:43:12.474Z,53.39
2016-09-02T10:44:13.126Z,53
2016-09-02T10:45:13.782Z,53
2016-09-02T10:46:14.437Z,52.61
2016-09-02T10:47:15.085Z,53.39
2016-09-02T10:48:15.713Z,53.87
2016-09-02T10:49:16.386Z,55.22
2016-09-02T10:50:17.013Z,55.31
2016-09-02T10:51:17.641Z,56.47
2016-09-02T10:52:18.315Z,54.52
2016-09-02T10:53:18.963Z,55.87
2016-09-02T10:54:19.639Z,53.96
2016-09-02T10:55:20.324Z,53.67
2016-09-02T10:56:20.965Z,53.19
2016-09-02T10:57:21.605Z,53.29
2016-09-02T10:58:22.232Z,52.61
2016-09-02T10:59:22.914Z,52.71
2016-09-02T11:00:23.539Z,52.61
2016-09-02T11:01:24.152Z,53.67
2016-09-02T11:02:24.788Z,53.58
2016-09-02T11:03:25.415Z,53.87
2016-09-02T11:04:26.054Z,53.87
2016-09-02T11:05:26.699Z,53.67
2016-09-02T11:06:27.357Z,52.81
2016-09-02T11:07:28.033Z,52.91
2016-09-02T11:08:28.754Z,52.61
2016-09-02T11:09:29.393Z,53.19
2016-09-02T11:10:30.069Z,53
2016-09-02T11:11:30.723Z,52.81
2016-09-02T11:12:31.367Z,53
2016-09-02T11:13:32.013Z,52.81
2016-09-02T11:14:32.665Z,52.91
2016-09-02T11:15:33.262Z,52.71
2016-09-02T11:16:33.917Z,52.71
2016-09-02T11:17:34.548Z,52.61
2016-09-02T11:18:35.193Z,52.71
2016-09-02T11:19:35.869Z,53.13
2016-09-02T11:20:36.528Z,53.13
2016-09-02T11:21:37.150Z,53.19
2016-09-02T11:22:37.782Z,53.48
2016-09-02T11:23:38.429Z,53
2016-09-02T11:24:39.120Z,52.81
2016-09-02T11:25:39.777Z,53.09
2016-09-02T11:26:40.412Z,52.71
2016-09-02T11:27:41.096Z,53.09
2016-09-02T11:28:41.749Z,52.81
2016-09-02T11:29:42.364Z,52.91
2016-09-02T11:30:43.006Z,52.73
2016-09-02T11:31:43.660Z,52.83
2016-09-02T11:32:44.295Z,52.73
2016-09-02T11:33:44.932Z,52.93
2016-09-02T11:34:45.550Z,53.03
2016-09-02T11:35:46.427Z,52.83
2016-09-02T11:36:47.097Z,53.13
2016-09-02T11:37:47.768Z,52.93
2016-09-02T11:38:48.393Z,52.93
2016-09-02T11:39:49.017Z,52.64
2016-09-02T11:40:49.651Z,52.73
2016-09-02T11:41:50.279Z,52.55
2016-09-02T11:42:50.916Z,52.76
2016-09-02T11:43:51.548Z,52.76
2016-09-02T11:44:52.212Z,52.83
2016-09-02T11:45:53.244Z,53.13
2016-09-02T11:46:53.895Z,52.55
2016-09-02T11:47:54.539Z,53.03
2016-09-02T11:48:55.162Z,53.8
2016-09-02T11:49:55.835Z,53.22
2016-09-02T11:50:57.518Z,53.51
2016-09-02T11:51:58.182Z,53.8
2016-09-02T11:52:58.813Z,54.86
2016-09-02T11:53:59.482Z,56.11
2016-09-02T11:55:00.116Z,56.4
2016-09-02T11:56:00.776Z,56.98
2016-09-02T11:57:01.407Z,57.27
2016-09-02T11:58:02.034Z,57.94
2016-09-02T11:59:02.666Z,58.2
2016-09-02T12:00:03.291Z,57.65
2016-09-02T12:01:03.931Z,57.46
2016-09-02T12:02:04.663Z,56.49
2016-09-02T12:03:05.299Z,56.59
2016-09-02T12:04:05.975Z,55.82
2016-09-02T12:05:06.608Z,56.3
2016-09-02T12:06:07.260Z,55.92
2016-09-02T12:07:07.927Z,55.82
2016-09-02T12:08:08.545Z,56.3
2016-09-02T12:09:09.168Z,55.82
2016-09-02T12:10:09.805Z,54.86
2016-09-02T12:11:10.480Z,54.86
2016-09-02T12:12:11.133Z,55.24
2016-09-02T12:13:11.764Z,55.34
2016-09-02T12:14:12.418Z,54.96
2016-09-02T12:15:13.056Z,55.05
2016-09-02T12:16:13.715Z,53.89
2016-09-02T12:17:14.339Z,54.11
2016-09-02T12:18:14.973Z,53.92
2016-09-02T12:19:15.600Z,53.99
2016-09-02T12:20:16.240Z,54.11
2016-09-02T12:21:16.885Z,53.31
2016-09-02T12:22:17.546Z,53.73
2016-09-02T12:23:18.197Z,55.08
2016-09-02T12:24:18.838Z,55.27
2016-09-02T12:25:19.478Z,54.86
2016-09-02T12:26:20.114Z,54.79
2016-09-02T12:27:20.747Z,54.88
2016-09-02T12:28:21.452Z,54.98
2016-09-02T12:29:22.090Z,54.57
2016-09-02T12:30:22.723Z,55.44
2016-09-02T12:31:23.353Z,55.46
2016-09-02T12:32:23.981Z,55.54
2016-09-02T12:33:24.626Z,55.54
2016-09-02T12:34:25.268Z,56.4
2016-09-02T12:35:25.899Z,56.21
2016-09-02T12:36:26.534Z,55.63
2016-09-02T12:37:27.185Z,55.15
2016-09-02T12:38:27.843Z,55.54
2016-09-02T12:39:28.524Z,55.44
2016-09-02T12:40:29.191Z,56.01
2016-09-02T12:41:29.823Z,56.3
2016-09-02T12:42:30.446Z,56.21
2016-09-02T12:43:31.114Z,56.49
2016-09-02T12:44:31.732Z,56.98
2016-09-02T12:45:32.349Z,56.79
2016-09-02T12:46:32.973Z,56.49
2016-09-02T12:47:33.598Z,56.69
2016-09-02T12:48:34.249Z,56.98
2016-09-02T12:49:34.892Z,56.79
2016-09-02T12:50:35.536Z,57.46
2016-09-02T12:51:36.169Z,57.37
2016-09-02T12:52:36.798Z,57.27
2016-09-02T12:53:37.469Z,57.37
2016-09-02T12:54:38.121Z,56.69
2016-09-02T12:55:38.775Z,56.79
2016-09-02T12:56:39.423Z,56.88
2016-09-02T12:57:40.075Z,57.37
2016-09-02T12:58:40.723Z,55.34
2016-09-02T12:59:41.350Z,55.92
2016-09-02T13:00:41.990Z,57.46
2016-09-02T13:01:42.643Z,56.59
2016-09-02T13:02:43.289Z,56.88
2016-09-02T13:03:43.990Z,56.3
2016-09-02T13:04:44.734Z,56.49